Time;durP1;ratioP1;P1;durP2;ratioP2;P2;SDS_P1;SDS_P2;PMS_P1;PMS_P2;Temp;Humidity;BMP_temperature;BMP_pressure;BME280_temperature;BME280_humidity;BME280_pressure;Samples;Min_cycle;Max_cycle;Signal;HPM_P1;HPM_P2
2021/06/15 00:00:39;;;;;;;4.13;2.47;;;20.00;64.60;;;;;;5062903;28;20031;-89
2021/06/15 00:03:04;;;;;;;4.78;2.75;;;20.00;64.50;;;;;;5057081;28;20028;-88
2021/06/15 00:05:30;;;;;;;5.25;3.13;;;20.00;64.40;;;;;;5040963;28;20122;-88
2021/06/15 00:07:56;;;;;;;4.47;3.20;;;20.00;64.50;;;;;;5050604;28;20029;-89
2021/06/15 00:10:24;;;;;;;6.32;3.13;;;19.90;64.60;;;;;;5050754;28;20563;-88
2021/06/15 00:12:51;;;;;;;4.45;2.50;;;19.90;64.80;;;;;;5053857;28;20040;-87
2021/06/15 00:15:18;;;;;;;3.47;2.47;;;19.80;64.80;;;;;;5048171;28;20047;-87
2021/06/15 00:17:44;;;;;;;3.25;2.55;;;19.80;64.70;;;;;;5057914;28;20041;-88
2021/06/15 00:20:11;;;;;;;4.03;2.92;;;19.80;64.80;;;;;;5065903;28;20020;-87
2021/06/15 00:22:36;;;;;;;4.15;3.00;;;19.80;65.00;;;;;;5055099;28;20373;-89
2021/06/15 00:25:03;;;;;;;5.07;2.95;;;19.70;65.40;;;;;;5051523;28;20024;-88
2021/06/15 00:27:30;;;;;;;5.38;3.08;;;19.60;65.50;;;;;;5045643;28;20029;-89
2021/06/15 00:29:56;;;;;;;4.05;2.70;;;19.60;65.80;;;;;;5039816;28;20021;-89
2021/06/15 00:32:21;;;;;;;3.42;2.60;;;19.50;65.80;;;;;;5054633;28;20098;-88
2021/06/15 00:34:47;;;;;;;3.35;2.45;;;19.50;65.80;;;;;;5053001;28;20036;-87
2021/06/15 00:37:13;;;;;;;5.05;2.60;;;19.50;65.80;;;;;;5049555;28;20040;-87
2021/06/15 00:39:39;;;;;;;5.05;2.90;;;19.40;65.90;;;;;;5059158;28;20090;-86
2021/06/15 00:42:06;;;;;;;4.32;2.58;;;19.40;66.10;;;;;;5066088;28;20035;-87
2021/06/15 00:44:33;;;;;;;4.18;2.42;;;19.40;66.00;;;;;;5054982;28;20414;-87
2021/06/15 00:46:59;;;;;;;4.43;2.83;;;19.30;66.10;;;;;;5053636;28;20028;-88
2021/06/15 00:49:26;;;;;;;4.07;2.72;;;19.30;66.30;;;;;;5056359;28;20476;-86
2021/06/15 00:51:54;;;;;;;3.40;2.75;;;19.30;66.30;;;;;;5073903;28;20032;-87
2021/06/15 00:54:20;;;;;;;3.13;1.95;;;19.20;66.30;;;;;;5068965;28;20021;-87
2021/06/15 00:56:45;;;;;;;5.22;2.97;;;19.20;66.20;;;;;;5054752;28;20033;-87
2021/06/15 00:59:11;;;;;;;3.60;2.92;;;19.20;66.40;;;;;;5069112;28;20116;-87
2021/06/15 01:01:37;;;;;;;4.47;3.13;;;19.20;66.40;;;;;;5056944;28;20483;-86
2021/06/15 01:04:03;;;;;;;3.90;2.72;;;19.20;66.50;;;;;;5060863;28;20044;-86
2021/06/15 01:06:50;;;;;;;3.38;2.53;;;19.10;66.40;;;;;;5057834;28;20039;-86
2021/06/15 01:13:03;;;;;;;3.72;2.60;;;19.10;66.70;;;;;;5521432;23;20102;-83
2021/06/15 01:16:02;;;;;;;4.93;2.67;;;19.00;66.70;;;;;;5057808;28;20028;-84
2021/06/15 01:18:31;;;;;;;3.78;2.63;;;18.90;67.00;;;;;;5053181;28;20035;-85
2021/06/15 01:21:02;;;;;;;3.85;3.13;;;18.90;67.50;;;;;;5052386;28;20034;-85
2021/06/15 01:23:40;;;;;;;4.50;2.67;;;18.80;67.70;;;;;;5038721;28;20032;-84
2021/06/15 01:27:00;;;;;;;4.00;2.60;;;18.90;67.50;;;;;;5052490;28;20037;-87
2021/06/15 01:29:38;;;;;;;5.13;2.78;;;18.90;67.20;;;;;;4951537;29;20023;-86
2021/06/15 01:32:11;;;;;;;5.28;2.70;;;18.90;67.10;;;;;;5014032;28;20037;-86
2021/06/15 01:34:43;;;;;;;3.58;2.30;;;18.90;67.10;;;;;;5021889;28;20067;-86
2021/06/15 01:37:16;;;;;;;3.97;2.38;;;18.80;67.00;;;;;;5028124;28;20049;-87
2021/06/15 01:39:51;;;;;;;4.03;2.20;;;18.80;66.90;;;;;;5031757;28;20445;-87
2021/06/15 01:42:40;;;;;;;3.10;2.33;;;18.80;66.80;;;;;;5041814;28;20030;-86
2021/06/15 01:45:11;;;;;;;3.88;2.60;;;18.90;66.80;;;;;;5025060;28;20032;-87
2021/06/15 01:47:40;;;;;;;4.03;2.75;;;18.80;66.80;;;;;;5045627;28;20025;-87
2021/06/15 01:50:09;;;;;;;3.50;2.38;;;18.80;66.80;;;;;;5034428;28;20033;-87
2021/06/15 01:52:37;;;;;;;3.47;2.63;;;18.80;66.80;;;;;;5033558;28;20017;-87
2021/06/15 01:55:05;;;;;;;3.30;2.47;;;18.80;66.90;;;;;;5045530;28;20607;-87
2021/06/15 01:57:32;;;;;;;3.78;2.72;;;18.80;66.90;;;;;;5050108;28;20033;-87
2021/06/15 02:00:00;;;;;;;4.70;2.47;;;18.80;66.90;;;;;;5037885;28;20017;-87
2021/06/15 02:02:28;;;;;;;2.90;2.15;;;18.80;66.90;;;;;;5033895;28;20036;-87
2021/06/15 02:04:55;;;;;;;3.55;2.88;;;18.80;66.70;;;;;;5040388;28;20407;-86
2021/06/15 02:07:26;;;;;;;3.80;2.83;;;18.80;66.70;;;;;;5050034;28;20439;-86
2021/06/15 02:09:56;;;;;;;3.92;2.47;;;18.80;66.80;;;;;;5044091;28;20375;-87
2021/06/15 02:12:28;;;;;;;3.33;2.53;;;18.80;66.70;;;;;;5051124;28;20033;-86
2021/06/15 02:14:54;;;;;;;4.85;2.50;;;18.80;66.80;;;;;;5044625;28;20029;-88
2021/06/15 02:17:23;;;;;;;3.88;2.92;;;18.70;66.70;;;;;;5044118;28;20392;-88
2021/06/15 02:19:49;;;;;;;4.03;2.80;;;18.70;66.90;;;;;;5044116;28;20029;-87
2021/06/15 02:22:18;;;;;;;3.75;2.70;;;18.70;66.90;;;;;;5046816;28;20021;-87
2021/06/15 02:24:54;;;;;;;3.58;2.50;;;18.70;66.90;;;;;;5045740;28;20060;-88
2021/06/15 02:27:22;;;;;;;4.20;2.58;;;18.70;67.00;;;;;;5032563;28;20387;-87
2021/06/15 02:29:47;;;;;;;3.38;2.30;;;18.70;66.80;;;;;;5014757;28;20384;-87
2021/06/15 02:32:16;;;;;;;3.95;2.53;;;18.70;66.70;;;;;;5050843;28;20095;-87
2021/06/15 02:34:47;;;;;;;4.15;2.70;;;18.70;66.70;;;;;;5045814;28;20087;-87
2021/06/15 02:37:16;;;;;;;3.28;2.50;;;18.70;66.70;;;;;;5017267;28;20045;-88
2021/06/15 02:39:42;;;;;;;4.65;2.60;;;18.70;66.60;;;;;;5041310;28;20025;-87
2021/06/15 02:42:12;;;;;;;2.70;2.15;;;18.70;66.60;;;;;;5032080;28;20096;-87
2021/06/15 02:44:43;;;;;;;4.43;2.90;;;18.80;66.50;;;;;;5029869;28;20025;-87
2021/06/15 02:47:10;;;;;;;3.13;2.30;;;18.80;66.50;;;;;;5038689;28;20075;-86
2021/06/15 02:49:48;;;;;;;3.10;2.35;;;18.70;66.30;;;;;;5031946;28;20026;-86
2021/06/15 02:52:18;;;;;;;4.75;2.67;;;18.70;66.30;;;;;;5041344;28;20090;-86
2021/06/15 02:54:57;;;;;;;3.72;2.40;;;18.70;66.40;;;;;;5048053;28;20070;-86
2021/06/15 02:57:25;;;;;;;3.45;2.20;;;18.70;66.30;;;;;;5033876;28;20048;-86
2021/06/15 02:59:53;;;;;;;3.67;2.10;;;18.70;66.10;;;;;;5024774;28;20048;-88
2021/06/15 03:02:19;;;;;;;3.15;2.20;;;18.70;66.10;;;;;;5031649;28;20052;-87
2021/06/15 03:04:46;;;;;;;3.40;2.00;;;18.70;66.10;;;;;;5046092;28;20056;-87
2021/06/15 03:07:13;;;;;;;3.83;2.17;;;18.70;66.10;;;;;;5032143;28;20040;-87
2021/06/15 03:09:39;;;;;;;3.53;2.13;;;18.70;66.10;;;;;;5049056;28;20035;-87
2021/06/15 03:12:25;;;;;;;3.53;1.70;;;18.60;66.10;;;;;;5043108;28;20478;-87
2021/06/15 03:15:07;;;;;;;3.08;2.00;;;18.60;66.10;;;;;;5044751;28;20060;-87
2021/06/15 03:17:35;;;;;;;2.35;1.75;;;18.60;66.00;;;;;;5036681;28;20037;-87
2021/06/15 03:20:11;;;;;;;2.47;1.98;;;18.60;65.80;;;;;;5043620;28;20036;-87
2021/06/15 03:22:47;;;;;;;1.65;1.52;;;18.60;65.80;;;;;;5035462;28;20436;-87
2021/06/15 03:25:17;;;;;;;2.63;1.83;;;18.60;65.70;;;;;;5044664;28;20030;-87
2021/06/15 03:27:50;;;;;;;2.03;1.60;;;18.60;65.80;;;;;;5035345;28;20120;-86
2021/06/15 03:30:16;;;;;;;3.00;1.80;;;18.60;65.70;;;;;;5045799;28;20231;-87
2021/06/15 03:32:48;;;;;;;3.80;1.85;;;18.60;65.60;;;;;;5040732;28;20055;-87
2021/06/15 03:35:15;;;;;;;2.97;1.50;;;18.60;65.60;;;;;;5034902;28;20108;-87
2021/06/15 03:37:52;;;;;;;3.53;1.80;;;18.60;65.50;;;;;;5040303;28;20395;-87
2021/06/15 03:40:21;;;;;;;2.75;1.58;;;18.60;65.50;;;;;;5048188;28;20108;-87
2021/06/15 03:42:49;;;;;;;2.25;1.50;;;18.70;65.40;;;;;;5041052;28;20025;-87
2021/06/15 03:45:15;;;;;;;1.65;1.45;;;18.70;65.30;;;;;;5035184;28;20053;-87
2021/06/15 03:47:45;;;;;;;3.40;1.60;;;18.70;65.10;;;;;;5043076;28;20029;-87
2021/06/15 03:50:14;;;;;;;1.73;1.10;;;18.70;64.90;;;;;;5050747;28;20104;-87
2021/06/15 03:52:41;;;;;;;2.30;1.30;;;18.80;64.80;;;;;;5046198;28;20036;-87
2021/06/15 03:55:09;;;;;;;3.05;1.50;;;18.80;64.80;;;;;;5039648;28;20090;-87
2021/06/15 03:57:41;;;;;;;1.90;1.52;;;18.70;64.60;;;;;;5048945;28;20480;-87
2021/06/15 04:00:08;;;;;;;3.85;1.60;;;18.70;64.60;;;;;;5036456;28;20025;-88
2021/06/15 04:02:38;;;;;;;1.98;1.45;;;18.70;64.60;;;;;;5037546;28;20480;-87
2021/06/15 04:05:05;;;;;;;2.95;1.60;;;18.60;64.70;;;;;;5031955;28;20384;-87
2021/06/15 04:07:32;;;;;;;2.03;1.50;;;18.60;64.60;;;;;;5048507;28;20033;-88
2021/06/15 04:10:00;;;;;;;2.20;1.38;;;18.60;64.50;;;;;;5036747;28;20029;-88
2021/06/15 04:12:26;;;;;;;4.07;1.30;;;18.60;64.40;;;;;;5035271;28;20087;-88
2021/06/15 04:14:53;;;;;;;2.53;1.20;;;18.60;64.30;;;;;;5046752;28;20071;-87
2021/06/15 04:17:24;;;;;;;1.73;1.00;;;18.60;64.20;;;;;;5040624;28;20033;-88
2021/06/15 04:19:55;;;;;;;2.28;0.90;;;18.70;64.10;;;;;;5047503;28;20100;-88
2021/06/15 04:22:21;;;;;;;2.92;1.25;;;18.70;63.80;;;;;;5024088;28;20116;-88
2021/06/15 04:24:52;;;;;;;3.83;1.30;;;18.70;63.70;;;;;;5034757;28;20021;-88
2021/06/15 04:27:22;;;;;;;2.08;1.00;;;18.70;63.70;;;;;;5036152;28;20072;-86
2021/06/15 04:29:54;;;;;;;1.00;0.80;;;18.70;63.60;;;;;;5054402;28;20025;-87
2021/06/15 04:32:29;;;;;;;3.00;1.10;;;18.70;63.40;;;;;;5055400;28;20116;-87
2021/06/15 04:34:59;;;;;;;2.33;1.08;;;18.60;63.50;;;;;;5047271;28;20033;-86
2021/06/15 04:37:26;;;;;;;1.77;0.95;;;18.60;63.30;;;;;;5047321;28;20033;-87
2021/06/15 04:40:05;;;;;;;2.55;1.38;;;18.60;63.20;;;;;;5037916;28;20116;-86
2021/06/15 04:42:51;;;;;;;1.67;1.10;;;18.50;63.20;;;;;;5036434;28;20025;-86
2021/06/15 04:45:21;;;;;;;2.63;0.88;;;18.50;63.10;;;;;;5045497;28;20215;-87
2021/06/15 04:48:00;;;;;;;1.33;0.75;;;18.50;63.10;;;;;;5044432;28;20052;-87
2021/06/15 04:50:27;;;;;;;2.50;0.90;;;18.60;62.90;;;;;;5048912;28;20035;-88
2021/06/15 04:52:55;;;;;;;3.13;1.10;;;18.60;62.70;;;;;;5053230;28;20029;-87
2021/06/15 04:55:26;;;;;;;1.77;0.60;;;18.60;62.50;;;;;;5039723;28;20025;-87
2021/06/15 04:57:53;;;;;;;2.85;0.80;;;18.50;62.40;;;;;;5037678;28;20474;-87
2021/06/15 05:00:22;;;;;;;1.88;0.90;;;18.50;62.30;;;;;;5054769;28;20102;-87
2021/06/15 05:02:51;;;;;;;2.17;0.95;;;18.50;62.30;;;;;;5055114;28;20390;-88
2021/06/15 05:05:17;;;;;;;2.78;0.90;;;18.50;62.20;;;;;;5047659;28;20021;-88
2021/06/15 05:07:43;;;;;;;2.63;0.80;;;18.50;62.20;;;;;;5018559;28;20025;-88
2021/06/15 05:10:11;;;;;;;2.78;0.90;;;18.50;62.00;;;;;;5053909;28;20099;-87
2021/06/15 05:12:42;;;;;;;2.47;1.00;;;18.50;62.00;;;;;;5044946;28;20028;-88
2021/06/15 05:15:10;;;;;;;2.42;1.05;;;18.40;61.90;;;;;;5044304;28;20033;-87
2021/06/15 05:17:36;;;;;;;3.30;1.00;;;18.40;61.90;;;;;;5049423;28;20037;-87
2021/06/15 05:20:06;;;;;;;2.03;0.50;;;18.40;62.00;;;;;;5047785;28;20014;-87
2021/06/15 05:22:38;;;;;;;1.38;0.70;;;18.40;62.00;;;;;;5018382;28;20029;-87
2021/06/15 05:25:04;;;;;;;1.25;0.82;;;18.40;61.90;;;;;;5044318;28;20013;-87
2021/06/15 05:27:32;;;;;;;3.13;0.82;;;18.40;61.90;;;;;;5047664;28;20032;-86
2021/06/15 05:29:59;;;;;;;2.25;0.80;;;18.40;61.90;;;;;;5026741;28;20028;-87
2021/06/15 05:32:25;;;;;;;1.10;0.60;;;18.40;61.80;;;;;;5046597;28;20013;-88
2021/06/15 05:34:51;;;;;;;2.00;0.63;;;18.50;61.70;;;;;;5045524;28;20036;-87
2021/06/15 05:37:18;;;;;;;1.75;0.63;;;18.60;61.50;;;;;;5043491;28;20080;-87
2021/06/15 05:39:44;;;;;;;1.83;0.68;;;18.60;61.40;;;;;;5040554;28;20064;-87
2021/06/15 05:42:12;;;;;;;1.50;0.68;;;18.70;61.40;;;;;;5027355;28;20094;-88
2021/06/15 05:44:38;;;;;;;2.97;0.80;;;18.70;61.40;;;;;;5044905;28;20029;-88
2021/06/15 05:47:03;;;;;;;1.92;0.75;;;18.70;61.40;;;;;;5040236;28;20025;-87
2021/06/15 05:49:29;;;;;;;2.38;0.80;;;18.80;61.20;;;;;;5023314;28;20475;-85
2021/06/15 05:52:10;;;;;;;3.15;0.80;;;18.80;61.10;;;;;;5038970;28;20041;-87
2021/06/15 05:54:36;;;;;;;1.90;0.88;;;18.90;61.00;;;;;;5044357;28;20041;-90
2021/06/15 05:57:02;;;;;;;3.05;0.90;;;19.00;60.80;;;;;;5042463;28;20017;-87
2021/06/15 05:59:28;;;;;;;3.10;0.85;;;19.10;60.70;;;;;;5036169;28;20414;-88
2021/06/15 06:01:54;;;;;;;3.10;1.10;;;19.30;60.50;;;;;;5039838;28;20025;-88
2021/06/15 06:04:25;;;;;;;2.58;0.80;;;19.40;60.10;;;;;;5046148;28;20030;-88
2021/06/15 06:09:37;;;;;;;4.95;0.93;;;19.50;59.70;;;;;;5039033;28;20557;-88
2021/06/15 06:12:04;;;;;;;3.17;0.70;;;19.60;59.40;;;;;;5034887;28;20032;-88
2021/06/15 06:14:29;;;;;;;1.98;0.80;;;19.70;59.20;;;;;;5049624;28;20037;-88
2021/06/15 06:16:55;;;;;;;3.17;0.80;;;19.70;59.00;;;;;;5050373;28;20099;-88
2021/06/15 06:19:20;;;;;;;2.65;1.10;;;19.80;58.90;;;;;;5044216;28;20037;-86
2021/06/15 06:21:47;;;;;;;6.13;1.17;;;19.80;58.80;;;;;;5035950;28;20141;-85
2021/06/15 06:24:14;;;;;;;2.70;1.00;;;19.60;58.50;;;;;;5049747;28;20036;-87
2021/06/15 06:26:40;;;;;;;1.48;0.70;;;19.40;58.80;;;;;;5035154;28;20104;-87
2021/06/15 06:29:06;;;;;;;4.13;1.20;;;19.40;59.00;;;;;;5027393;28;20037;-87
2021/06/15 06:31:32;;;;;;;1.42;0.70;;;19.40;58.90;;;;;;5037845;28;20067;-87
2021/06/15 06:33:57;;;;;;;3.30;0.95;;;19.40;59.30;;;;;;5032622;28;20022;-87
2021/06/15 06:36:23;;;;;;;2.13;0.93;;;19.30;59.10;;;;;;5047682;28;20033;-87
2021/06/15 06:38:51;;;;;;;2.20;0.70;;;19.40;59.00;;;;;;5033246;28;20133;-87
2021/06/15 06:41:17;;;;;;;3.40;1.00;;;19.60;58.80;;;;;;5022021;28;20022;-87
2021/06/15 06:43:42;;;;;;;1.90;0.90;;;19.70;58.40;;;;;;5039761;28;20529;-87
2021/06/15 06:46:08;;;;;;;3.38;1.00;;;19.80;58.20;;;;;;5043181;28;20025;-87
2021/06/15 06:48:33;;;;;;;3.47;0.95;;;19.80;58.00;;;;;;5041589;28;20383;-87
2021/06/15 06:50:59;;;;;;;3.03;1.10;;;19.90;57.60;;;;;;5051296;28;20033;-87
2021/06/15 06:53:25;;;;;;;2.58;1.10;;;19.90;57.10;;;;;;5056994;28;20032;-87
2021/06/15 06:55:50;;;;;;;2.92;0.80;;;19.90;57.00;;;;;;5055852;28;20043;-87
2021/06/15 06:58:16;;;;;;;5.03;1.10;;;20.10;57.00;;;;;;5050677;28;20029;-87
2021/06/15 07:00:41;;;;;;;2.22;0.80;;;20.20;56.60;;;;;;5042774;28;20026;-87
2021/06/15 07:03:07;;;;;;;3.03;0.90;;;20.30;56.30;;;;;;5049970;28;20051;-90
2021/06/15 07:05:33;;;;;;;3.28;0.80;;;20.20;55.80;;;;;;5043459;28;20080;-87
2021/06/15 07:07:58;;;;;;;1.40;0.70;;;20.20;55.70;;;;;;5042491;28;20048;-87
2021/06/15 07:10:24;;;;;;;3.63;1.10;;;20.40;55.60;;;;;;5041197;28;20074;-89
2021/06/15 07:12:50;;;;;;;3.05;0.68;;;20.40;55.40;;;;;;5046586;28;20031;-88
2021/06/15 07:15:16;;;;;;;2.05;0.70;;;20.50;55.20;;;;;;5060820;28;20040;-93
2021/06/15 07:17:42;;;;;;;3.63;0.70;;;20.60;54.90;;;;;;5032787;28;20258;-91
2021/06/15 07:20:09;;;;;;;1.95;0.60;;;20.70;54.50;;;;;;5050608;28;20083;-90
2021/06/15 07:22:35;;;;;;;1.95;0.60;;;20.90;54.20;;;;;;5043336;28;20616;-87
2021/06/15 07:25:01;;;;;;;2.97;0.90;;;21.20;53.50;;;;;;5031519;28;20542;-89
2021/06/15 07:27:27;;;;;;;2.65;0.75;;;21.30;52.70;;;;;;5039052;28;20031;-88
2021/06/15 07:29:52;;;;;;;1.58;0.70;;;21.40;52.00;;;;;;5044854;28;20032;-88
2021/06/15 07:32:18;;;;;;;2.83;0.75;;;21.50;51.60;;;;;;5024867;28;20033;-87
2021/06/15 07:34:43;;;;;;;2.33;0.70;;;21.60;50.90;;;;;;5033384;28;20037;-87
2021/06/15 07:37:09;;;;;;;0.90;0.50;;;21.70;50.50;;;;;;5045793;28;20017;-86
2021/06/15 07:39:35;;;;;;;2.47;0.93;;;21.90;50.20;;;;;;5046251;28;20037;-86
2021/06/15 07:42:00;;;;;;;1.73;0.70;;;22.00;49.70;;;;;;5039072;28;20485;-85
2021/06/15 07:44:26;;;;;;;3.25;1.50;;;22.10;49.40;;;;;;5052006;28;20029;-87
2021/06/15 07:46:54;;;;;;;3.58;0.90;;;22.20;48.10;;;;;;5035000;28;20028;-87
2021/06/15 07:49:20;;;;;;;1.63;0.63;;;22.10;48.50;;;;;;5055872;28;20017;-86
2021/06/15 07:51:46;;;;;;;3.55;0.70;;;22.10;48.80;;;;;;5035958;28;20118;-89
2021/06/15 07:54:11;;;;;;;4.72;0.88;;;22.10;49.00;;;;;;5056099;28;20437;-87
2021/06/15 07:56:37;;;;;;;1.67;0.60;;;22.00;48.40;;;;;;5054934;28;20035;-84
2021/06/15 07:59:02;;;;;;;1.75;0.60;;;22.10;48.80;;;;;;5035034;28;20044;-86
2021/06/15 08:01:28;;;;;;;3.80;0.80;;;22.10;48.70;;;;;;5048910;28;20016;-87
2021/06/15 08:03:54;;;;;;;1.60;0.70;;;22.10;48.60;;;;;;5051798;28;20055;-85
2021/06/15 08:06:19;;;;;;;1.88;0.70;;;22.10;48.40;;;;;;5050688;28;20040;-84
2021/06/15 08:08:45;;;;;;;1.27;0.57;;;22.20;48.40;;;;;;5040260;28;20026;-84
2021/06/15 08:11:11;;;;;;;1.20;0.70;;;22.30;48.40;;;;;;5040188;28;20025;-83
2021/06/15 08:13:36;;;;;;;3.65;0.90;;;22.40;48.20;;;;;;5040604;28;20037;-83
2021/06/15 08:16:02;;;;;;;3.03;0.88;;;22.40;47.60;;;;;;5037812;28;20498;-84
2021/06/15 08:18:28;;;;;;;1.88;0.70;;;22.50;47.60;;;;;;5029096;28;20091;-85
2021/06/15 08:20:54;;;;;;;3.28;0.90;;;22.60;47.20;;;;;;5040926;28;20025;-84
2021/06/15 08:23:22;;;;;;;4.25;1.00;;;22.80;46.40;;;;;;5047887;28;20506;-84
2021/06/15 08:25:47;;;;;;;2.22;0.82;;;22.80;45.70;;;;;;5026580;28;20028;-84
2021/06/15 08:28:13;;;;;;;1.27;0.57;;;22.80;45.80;;;;;;5028205;28;20025;-83
2021/06/15 08:30:40;;;;;;;1.17;0.50;;;22.90;45.70;;;;;;5043243;28;20040;-83
2021/06/15 08:33:06;;;;;;;2.53;0.70;;;23.20;45.80;;;;;;5047128;28;20029;-84
2021/06/15 08:35:32;;;;;;;3.17;1.15;;;23.20;45.60;;;;;;5044950;28;20112;-84
2021/06/15 08:37:58;;;;;;;3.22;0.88;;;23.20;45.40;;;;;;5042505;28;20034;-84
2021/06/15 08:40:24;;;;;;;1.67;0.63;;;23.20;45.70;;;;;;5039021;28;20025;-84
2021/06/15 08:42:51;;;;;;;2.15;0.60;;;23.30;46.10;;;;;;5037325;28;20043;-85
2021/06/15 08:45:17;;;;;;;1.77;0.50;;;23.40;46.20;;;;;;5042003;28;20462;-85
2021/06/15 08:47:45;;;;;;;3.25;0.85;;;23.40;46.20;;;;;;5046351;28;20018;-86
2021/06/15 08:50:14;;;;;;;2.40;0.60;;;23.20;46.30;;;;;;5026795;28;20025;-90
2021/06/15 08:52:40;;;;;;;2.95;1.00;;;23.30;46.70;;;;;;5030740;28;20040;-89
2021/06/15 08:55:07;;;;;;;1.80;0.60;;;23.40;46.80;;;;;;5042721;28;20182;-88
2021/06/15 08:57:35;;;;;;;2.67;0.95;;;23.40;47.20;;;;;;5051831;28;20233;-86
2021/06/15 09:00:02;;;;;;;2.78;0.77;;;23.30;46.90;;;;;;5054900;28;20546;-87
2021/06/15 09:02:28;;;;;;;2.70;1.20;;;23.40;47.20;;;;;;5030739;28;20155;-87
2021/06/15 09:04:54;;;;;;;2.53;0.60;;;23.50;47.10;;;;;;5053266;28;20115;-86
2021/06/15 09:07:20;;;;;;;3.03;0.70;;;23.50;47.30;;;;;;5048438;28;20044;-86
2021/06/15 09:09:48;;;;;;;1.30;0.60;;;23.60;47.10;;;;;;5034544;28;20103;-86
2021/06/15 09:12:20;;;;;;;1.67;0.50;;;23.70;47.10;;;;;;5059494;28;20020;-86
2021/06/15 09:14:46;;;;;;;1.35;0.55;;;23.80;47.10;;;;;;5065774;28;20032;-85
2021/06/15 09:17:29;;;;;;;1.27;0.50;;;23.80;47.00;;;;;;5057808;28;20219;-86
2021/06/15 09:20:11;;;;;;;3.20;0.70;;;23.90;46.80;;;;;;5055592;28;20033;-87
2021/06/15 09:22:38;;;;;;;1.10;0.50;;;23.90;46.50;;;;;;5048595;28;20135;-87
2021/06/15 09:25:07;;;;;;;1.20;0.60;;;24.10;46.20;;;;;;5067432;28;20062;-87
2021/06/15 09:27:37;;;;;;;4.07;0.80;;;24.20;45.70;;;;;;5048041;28;20027;-87
2021/06/15 09:30:12;;;;;;;1.15;0.57;;;24.30;45.40;;;;;;5058024;28;20117;-87
2021/06/15 09:32:41;;;;;;;1.52;0.60;;;24.30;45.00;;;;;;5037267;28;20025;-86
2021/06/15 09:35:12;;;;;;;1.13;0.50;;;24.50;44.80;;;;;;5049389;28;20040;-85
2021/06/15 09:37:51;;;;;;;2.40;0.40;;;24.50;44.30;;;;;;5048177;28;20037;-86
2021/06/15 09:40:26;;;;;;;1.30;0.60;;;24.60;44.30;;;;;;5062095;28;20021;-85
2021/06/15 09:43:09;;;;;;;1.25;0.50;;;24.60;44.00;;;;;;5060706;28;20040;-85
2021/06/15 09:45:42;;;;;;;1.85;0.73;;;24.60;43.40;;;;;;5049231;28;20036;-84
2021/06/15 09:48:23;;;;;;;3.95;1.08;;;24.30;41.80;;;;;;5039590;28;20021;-84
2021/06/15 09:50:51;;;;;;;2.30;0.50;;;24.20;42.00;;;;;;5037153;28;20115;-85
2021/06/15 09:53:24;;;;;;;1.08;0.45;;;24.00;42.70;;;;;;5059529;28;20032;-84
2021/06/15 09:55:50;;;;;;;2.25;0.60;;;24.20;43.20;;;;;;5030304;28;20526;-84
2021/06/15 09:58:16;;;;;;;1.88;0.70;;;24.40;43.30;;;;;;5052319;28;20068;-84
2021/06/15 10:00:42;;;;;;;2.35;0.68;;;24.50;43.10;;;;;;5053200;28;20484;-85
2021/06/15 10:03:16;;;;;;;2.28;0.70;;;24.70;43.00;;;;;;5054364;28;20036;-85
2021/06/15 10:05:41;;;;;;;1.58;0.60;;;24.80;42.60;;;;;;5050954;28;20382;-85
2021/06/15 10:08:13;;;;;;;2.30;0.60;;;24.80;42.10;;;;;;5037236;28;20013;-85
2021/06/15 10:10:42;;;;;;;1.73;0.50;;;24.80;41.70;;;;;;5042177;28;20443;-84
2021/06/15 10:13:08;;;;;;;2.67;0.70;;;24.70;40.60;;;;;;5031707;28;20031;-83
2021/06/15 10:15:35;;;;;;;2.17;0.70;;;24.60;40.60;;;;;;5027643;28;20162;-84
2021/06/15 10:18:02;;;;;;;1.88;0.60;;;24.30;40.60;;;;;;5051741;28;20037;-87
2021/06/15 10:20:29;;;;;;;3.17;0.88;;;24.50;41.30;;;;;;5059046;28;20021;-86
2021/06/15 10:22:56;;;;;;;3.97;0.90;;;24.50;41.10;;;;;;5056404;28;20559;-88
2021/06/15 10:25:24;;;;;;;2.92;0.80;;;24.40;41.70;;;;;;5050014;28;20021;-88
2021/06/15 10:27:51;;;;;;;1.58;0.60;;;24.50;41.70;;;;;;5054584;28;20024;-89
2021/06/15 10:30:20;;;;;;;2.45;0.80;;;24.60;41.50;;;;;;5035455;28;20051;-87
2021/06/15 10:33:10;;;;;;;1.15;0.60;;;24.80;41.50;;;;;;5044375;28;20032;-88
2021/06/15 10:35:45;;;;;;;2.88;0.60;;;25.00;42.10;;;;;;5032871;28;20025;-88
2021/06/15 10:38:31;;;;;;;1.63;0.50;;;25.10;41.10;;;;;;5053792;28;20036;-88
2021/06/15 10:41:02;;;;;;;2.28;0.80;;;25.30;41.10;;;;;;5051522;28;20021;-88
2021/06/15 10:43:36;;;;;;;1.48;0.70;;;25.40;40.80;;;;;;5047602;28;20025;-89
2021/06/15 10:46:12;;;;;;;2.80;0.60;;;25.40;40.50;;;;;;5050051;28;20021;-88
2021/06/15 10:48:44;;;;;;;3.28;0.63;;;25.70;40.40;;;;;;5034943;28;20040;-88
2021/06/15 10:51:48;;;;;;;1.63;0.65;;;25.80;40.10;;;;;;5041062;28;20027;-87
2021/06/15 10:54:34;;;;;;;2.25;0.60;;;25.80;39.80;;;;;;4991681;28;20034;-87
2021/06/15 10:57:29;;;;;;;1.80;0.60;;;25.70;39.70;;;;;;5045295;28;20510;-89
2021/06/15 11:00:11;;;;;;;3.92;0.60;;;25.80;39.50;;;;;;5010281;28;20041;-87
2021/06/15 11:02:38;;;;;;;2.05;0.70;;;25.90;39.70;;;;;;5056513;28;20079;-86
2021/06/15 11:05:55;;;;;;;2.53;0.90;;;25.90;39.20;;;;;;5044777;28;20053;-86
2021/06/15 11:08:25;;;;;;;1.70;0.73;;;25.70;39.00;;;;;;5028424;28;20030;-86
2021/06/15 11:10:55;;;;;;;2.20;0.50;;;25.70;38.70;;;;;;5025320;28;20407;-86
2021/06/15 11:13:40;;;;;;;1.20;0.50;;;25.70;39.00;;;;;;5043346;28;20028;-86
2021/06/15 11:16:06;;;;;;;3.47;0.80;;;25.80;39.30;;;;;;5040430;28;20421;-84
2021/06/15 11:18:32;;;;;;;1.40;0.70;;;26.00;38.90;;;;;;5043576;28;20029;-86
2021/06/15 11:20:57;;;;;;;1.83;0.70;;;26.00;38.60;;;;;;5026084;28;20535;-86
2021/06/15 11:23:28;;;;;;;3.28;1.10;;;26.10;38.30;;;;;;5039135;28;20032;-86
2021/06/15 11:26:11;;;;;;;5.25;0.90;;;25.90;38.00;;;;;;5025137;28;20037;-84
2021/06/15 11:28:44;;;;;;;2.22;0.73;;;25.40;38.00;;;;;;5046515;28;20036;-86
2021/06/15 11:31:19;;;;;;;2.60;0.80;;;25.50;38.50;;;;;;5055974;28;20021;-86
2021/06/15 11:34:03;;;;;;;2.03;0.57;;;25.70;38.70;;;;;;5041279;28;20029;-86
2021/06/15 11:36:50;;;;;;;1.83;0.60;;;26.00;38.50;;;;;;5049219;28;20379;-86
2021/06/15 11:39:21;;;;;;;1.95;0.68;;;26.30;38.30;;;;;;5041689;28;20033;-88
2021/06/15 11:42:20;;;;;;;1.27;0.60;;;26.60;37.90;;;;;;5039100;28;20029;-87
2021/06/15 11:45:13;;;;;;;2.63;0.90;;;26.70;37.70;;;;;;5006192;28;20034;-90
2021/06/15 11:47:47;;;;;;;2.67;0.65;;;26.90;36.90;;;;;;5039463;28;20660;-90
2021/06/15 11:50:29;;;;;;;3.95;1.20;;;26.70;36.90;;;;;;5031066;28;20033;-87
2021/06/15 11:53:13;;;;;;;3.95;0.90;;;26.50;36.70;;;;;;5030089;28;20021;-86
2021/06/15 11:55:40;;;;;;;3.33;0.85;;;26.30;37.50;;;;;;5044919;28;20039;-84
2021/06/15 11:58:08;;;;;;;3.22;0.77;;;26.10;37.70;;;;;;5042781;28;20376;-84
2021/06/15 12:00:38;;;;;;;2.83;0.90;;;26.20;37.80;;;;;;5039615;28;20037;-85
2021/06/15 12:03:17;;;;;;;2.42;0.65;;;26.10;37.90;;;;;;5042493;28;20033;-83
2021/06/15 12:05:48;;;;;;;3.40;1.10;;;26.30;38.20;;;;;;5045141;28;20017;-83
2021/06/15 12:08:14;;;;;;;2.25;0.80;;;26.70;38.10;;;;;;5039058;28;20119;-85
2021/06/15 12:10:40;;;;;;;2.28;0.70;;;26.90;37.90;;;;;;5041603;28;20048;-84
2021/06/15 12:13:09;;;;;;;3.60;0.90;;;27.20;37.60;;;;;;5045214;28;20032;-84
2021/06/15 12:15:42;;;;;;;2.42;0.90;;;27.20;37.30;;;;;;5043065;28;20033;-84
2021/06/15 12:18:11;;;;;;;1.73;0.63;;;27.30;37.30;;;;;;5043205;28;20033;-87
2021/06/15 12:20:41;;;;;;;1.25;0.60;;;27.60;37.40;;;;;;5043412;28;20124;-87
2021/06/15 12:23:40;;;;;;;2.55;0.90;;;27.80;36.90;;;;;;5040187;28;20029;-86
2021/06/15 12:26:13;;;;;;;2.17;0.70;;;28.00;36.80;;;;;;5041938;28;20297;-86
2021/06/15 12:29:05;;;;;;;2.58;0.80;;;28.10;36.50;;;;;;5029739;28;20033;-86
2021/06/15 12:31:38;;;;;;;2.92;0.90;;;28.10;36.70;;;;;;5017714;28;20017;-87
2021/06/15 12:34:04;;;;;;;3.13;1.00;;;28.10;36.50;;;;;;5044756;28;20476;-84
2021/06/15 12:36:36;;;;;;;2.33;0.80;;;27.80;36.40;;;;;;5030705;28;20112;-84
2021/06/15 12:39:17;;;;;;;3.42;1.13;;;27.80;36.40;;;;;;5022834;28;20047;-84
2021/06/15 12:41:51;;;;;;;2.67;1.08;;;27.20;36.70;;;;;;5048584;28;20036;-84
2021/06/15 12:44:18;;;;;;;2.03;0.80;;;27.20;37.30;;;;;;5041624;28;20029;-86
2021/06/15 12:46:45;;;;;;;1.67;0.63;;;27.60;37.30;;;;;;5047311;28;20027;-85
2021/06/15 12:49:22;;;;;;;2.33;0.70;;;28.00;37.10;;;;;;5051217;28;20396;-86
2021/06/15 12:51:51;;;;;;;1.92;0.98;;;28.00;36.80;;;;;;5042222;28;20037;-86
2021/06/15 12:54:39;;;;;;;4.50;0.77;;;28.10;36.80;;;;;;5033924;28;20099;-85
2021/06/15 12:57:07;;;;;;;3.92;1.20;;;27.70;36.50;;;;;;5051403;28;20382;-86
2021/06/15 12:59:35;;;;;;;2.55;0.90;;;27.60;36.80;;;;;;5060153;28;20656;-85
2021/06/15 13:02:18;;;;;;;1.35;0.55;;;27.60;36.90;;;;;;5054790;28;20024;-85
2021/06/15 13:04:46;;;;;;;1.13;0.50;;;28.00;37.00;;;;;;5025046;28;20535;-86
2021/06/15 13:07:16;;;;;;;2.67;0.93;;;28.30;36.90;;;;;;5051172;28;20013;-86
2021/06/15 13:09:42;;;;;;;2.97;1.00;;;28.60;36.60;;;;;;5048226;28;20030;-87